South Armidale Weather

South Armidale Weather


Today's Observations
Date Time Temperature Humidity Dewpoint Wind Speed High Gust Wind Bearing Rainfall Rate Total Rainfall Pressure Gust Wind Chill Heat Index UV Index
22/03/19 11:15 27.1 54 17.0 0.0 0.0 0 0.0 0.0 1018.0 0.0 0.0 27.8 0.0
22/03/19 11:14 27.4 54 17.3 0.0 0.0 0 0.0 0.0 1018.0 0.0 0.0 28.1 0.0
22/03/19 11:13 27.7 54 17.5 0.0 0.0 0 0.0 0.0 1018.0 0.0 0.0 28.5 0.0
22/03/19 11:12 27.9 53 17.4 0.0 0.0 0 0.0 0.0 1018.0 0.0 0.0 28.6 0.0
22/03/19 11:11 28.3 55 18.4 0.0 0.0 0 0.0 0.0 1018.0 0.0 0.0 29.3 0.0
22/03/19 11:10 28.1 55 18.2 0.0 0.0 0 0.0 0.0 1018.0 0.0 0.0 29.1 0.0
22/03/19 11:09 27.9 55 18.0 0.0 0.0 0 0.0 0.0 1018.0 0.0 0.0 28.8 0.0
22/03/19 11:08 27.7 55 17.8 0.0 0.0 0 0.0 0.0 1018.0 0.0 0.0 28.5 0.0
22/03/19 11:07 27.5 55 17.7 0.0 0.0 0 0.0 0.0 1018.0 0.0 0.0 28.3 0.0
22/03/19 11:06 27.3 55 17.5 0.0 0.0 0 0.0 0.0 1018.0 0.0 0.0 28.1 0.0
22/03/19 11:05 27.2 55 17.4 0.0 0.0 0 0.0 0.0 1018.0 0.0 0.0 28.0 0.0
22/03/19 11:04 26.7 56 17.2 0.0 0.0 0 0.0 0.0 1018.0 0.0 0.0 27.5 0.0
22/03/19 11:03 26.5 56 17.0 0.0 0.0 0 0.0 0.0 1018.0 0.0 0.0 26.5 0.0
22/03/19 10:48 26.5 55 16.7 0.0 0.0 0 0.0 0.0 1018.0 0.0 0.0 26.5 0.0
22/03/19 10:45 26.8 55 17.0 0.0 0.0 0 0.0 0.0 1018.0 0.0 0.0 27.5 0.0
22/03/19 10:44 26.8 55 17.0 0.0 0.0 0 0.0 0.0 1018.0 0.0 0.0 27.5 0.0
22/03/19 10:43 26.7 55 16.9 0.0 0.0 0 0.0 0.0 1018.0 0.0 0.0 27.4 0.0
22/03/19 10:42 26.6 55 16.8 0.0 0.0 0 0.0 0.0 1018.0 0.0 0.0 26.6 0.0
22/03/19 10:41 26.5 54 16.4 0.0 0.0 0 0.0 0.0 1018.0 0.0 0.0 26.5 0.0
22/03/19 10:40 26.6 54 16.5 0.0 0.0 0 0.0 0.0 1018.0 0.0 0.0 26.6 0.0
22/03/19 10:39 26.6 57 17.4 0.0 0.0 0 0.0 0.0 1018.0 0.0 0.0 26.6 0.0
22/03/19 10:38 26.5 58 17.6 0.0 0.0 0 0.0 0.0 1018.0 0.0 0.0 26.5 0.0
22/03/19 10:37 26.4 58 17.5 0.0 0.0 0 0.0 0.0 1018.0 0.0 0.0 26.4 0.0
22/03/19 10:36 26.3 57 17.1 0.0 0.0 0 0.0 0.0 1018.0 0.0 0.0 26.3 0.0
22/03/19 10:35 26.4 58 17.5 0.0 0.0 0 0.0 0.0 1018.0 0.0 0.0 26.4 0.0
22/03/19 10:34 26.4 59 17.7 0.0 0.0 0 0.0 0.0 1018.0 0.0 0.0 26.4 0.0
22/03/19 10:33 26.2 61 18.1 0.0 0.0 0 0.0 0.0 1018.0 0.0 0.0 26.2 0.0
22/03/19 10:30 25.9 63 18.3 0.0 0.0 0 0.0 0.0 1018.0 0.0 0.0 25.9 0.0
22/03/19 10:29 25.7 64 18.4 0.0 0.0 0 0.0 0.0 1018.0 0.0 0.0 25.7 0.0
22/03/19 10:28 25.4 64 18.1 0.0 0.0 0 0.0 0.0 1018.0 0.0 0.0 25.4 0.0
22/03/19 10:27 25.2 64 17.9 0.0 0.0 0 0.0 0.0 1018.0 0.0 0.0 25.2 0.0
22/03/19 10:26 24.8 65 17.8 0.0 0.0 0 0.0 0.0 1018.0 0.0 0.0 24.8 0.0
22/03/19 10:25 24.6 65 17.6 0.0 0.0 0 0.0 0.0 1018.0 0.0 0.0 24.6 0.0
22/03/19 10:24 24.5 65 17.5 0.0 0.0 0 0.0 0.0 1018.0 0.0 0.0 24.5 0.0
22/03/19 10:23 24.6 65 17.6 0.0 0.0 0 0.0 0.0 1018.0 0.0 0.0 24.6 0.0
22/03/19 10:22 24.7 64 17.4 0.0 0.0 0 0.0 0.0 1018.0 0.0 0.0 24.7 0.0
22/03/19 10:21 24.8 64 17.5 0.0 0.0 0 0.0 0.0 1018.0 0.0 0.0 24.8 0.0
22/03/19 10:20 24.9 63 17.4 0.0 0.0 0 0.0 0.0 1018.0 0.0 0.0 24.9 0.0
22/03/19 10:19 25.0 63 17.5 0.0 0.0 0 0.0 0.0 1018.0 0.0 0.0 25.0 0.0
22/03/19 10:18 25.4 63 17.8 0.0 0.0 0 0.0 0.0 1018.0 0.0 0.0 25.4 0.0
22/03/19 10:15 25.5 63 17.9 0.0 0.0 0 0.0 0.0 1018.0 0.0 0.0 25.5 0.0
22/03/19 10:14 25.7 63 18.1 0.0 0.0 0 0.0 0.0 1018.0 0.0 0.0 25.7 0.0
22/03/19 10:13 25.9 63 18.3 0.0 0.0 0 0.0 0.0 1018.0 0.0 0.0 25.9 0.0
22/03/19 10:12 25.9 64 18.6 0.0 0.0 0 0.0 0.0 1018.0 0.0 0.0 25.9 0.0
22/03/19 10:11 25.9 62 18.1 0.0 0.0 0 0.0 0.0 1018.0 0.0 0.0 25.9 0.0
22/03/19 10:10 26.0 63 18.4 0.0 0.0 0 0.0 0.0 1018.0 0.0 0.0 26.0 0.0
22/03/19 10:09 26.0 64 18.7 0.0 0.0 0 0.0 0.0 1018.0 0.0 0.0 26.0 0.0
22/03/19 10:08 25.9 66 19.1 0.0 0.0 0 0.0 0.0 1018.0 0.0 0.0 25.9 0.0
22/03/19 10:07 25.8 67 19.2 0.0 0.0 0 0.0 0.0 1018.0 0.0 0.0 25.8 0.0
22/03/19 10:06 25.6 66 18.8 0.0 0.0 0 0.0 0.0 1018.0 0.0 0.0 25.6 0.0
22/03/19 10:05 25.4 66 18.6 0.0 0.0 0 0.0 0.0 1018.0 0.0 0.0 25.4 0.0
22/03/19 10:04 25.3 67 18.7 0.0 0.0 0 0.0 0.0 1018.0 0.0 0.0 25.3 0.0
22/03/19 10:03 25.1 67 18.5 0.0 0.0 0 0.0 0.0 1018.0 0.0 0.0 25.1 0.0
22/03/19 10:00 25.0 68 18.7 0.0 0.0 0 0.0 0.0 1018.0 0.0 0.0 25.0 0.0
22/03/19 09:59 24.9 68 18.6 0.0 0.0 0 0.0 0.0 1018.0 0.0 0.0 24.9 0.0
22/03/19 09:58 24.7 68 18.4 0.0 0.0 0 0.0 0.0 1018.0 0.0 0.0 24.7 0.0
22/03/19 09:57 24.8 67 18.3 0.0 0.0 0 0.0 0.0 1018.0 0.0 0.0 24.8 0.0
22/03/19 09:56 24.6 69 18.5 0.0 0.0 0 0.0 0.0 1018.0 0.0 0.0 24.6 0.0
22/03/19 09:55 24.3 69 18.2 0.0 0.0 0 0.0 0.0 1018.0 0.0 0.0 24.3 0.0
22/03/19 09:54 24.1 69 18.1 0.0 0.0 0 0.0 0.0 1018.0 0.0 0.0 24.1 0.0
22/03/19 09:53 24.1 69 18.1 0.0 0.0 0 0.0 0.0 1018.0 0.0 0.0 24.1 0.0
22/03/19 09:52 24.1 69 18.1 0.0 0.0 0 0.0 0.0 1018.0 0.0 0.0 24.1 0.0
22/03/19 09:51 24.2 71 18.6 0.0 0.0 0 0.0 0.0 1018.0 0.0 0.0 24.2 0.0
22/03/19 09:50 24.1 70 18.3 0.0 0.0 0 0.0 0.0 1018.0 0.0 0.0 24.1 0.0
22/03/19 09:49 24.1 70 18.3 0.0 0.0 0 0.0 0.0 1018.0 0.0 0.0 24.1 0.0
22/03/19 09:48 24.0 70 18.2 0.0 0.0 0 0.0 0.0 1018.0 0.0 0.0 24.0 0.0
22/03/19 09:45 23.8 71 18.2 0.0 0.0 0 0.0 0.0 1018.0 0.0 0.0 23.8 0.0
22/03/19 09:44 23.8 70 18.0 0.0 0.0 0 0.0 0.0 1018.0 0.0 0.0 23.8 0.0
22/03/19 09:43 23.7 71 18.1 0.0 0.0 0 0.0 0.0 1018.0 0.0 0.0 23.7 0.0
22/03/19 09:42 23.7 73 18.6 0.0 0.0 0 0.0 0.0 1018.0 0.0 0.0 23.7 0.0
22/03/19 09:41 23.8 74 18.9 0.0 0.0 0 0.0 0.0 1018.0 0.0 0.0 23.8 0.0
22/03/19 09:40 23.5 73 18.4 0.0 0.0 0 0.0 0.0 1018.0 0.0 0.0 23.5 0.0
22/03/19 09:39 23.4 73 18.3 0.0 0.0 0 0.0 0.0 1018.0 0.0 0.0 23.4 0.0
22/03/19 09:38 23.4 73 18.3 0.0 0.0 0 0.0 0.0 1018.0 0.0 0.0 23.4 0.0
22/03/19 09:37 23.3 73 18.2 0.0 0.0 0 0.0 0.0 1018.0 0.0 0.0 23.3 0.0
22/03/19 09:36 23.2 72 17.9 0.0 0.0 0 0.0 0.0 1018.0 0.0 0.0 23.2 0.0
22/03/19 09:35 23.1 72 17.8 0.0 0.0 0 0.0 0.0 1018.0 0.0 0.0 23.1 0.0
22/03/19 09:34 23.0 72 17.7 0.0 0.0 0 0.0 0.0 1018.0 0.0 0.0 23.0 0.0
22/03/19 09:33 23.1 71 17.6 0.0 0.0 0 0.0 0.0 1018.0 0.0 0.0 23.1 0.0
22/03/19 09:30 23.2 73 18.1 0.0 0.0 0 0.0 0.0 1018.0 0.0 0.0 23.2 0.0
22/03/19 09:29 23.1 73 18.0 0.0 0.0 0 0.0 0.0 1018.0 0.0 0.0 23.1 0.0
22/03/19 09:28 23.0 74 18.1 0.0 0.0 0 0.0 0.0 1018.0 0.0 0.0 23.0 0.0
22/03/19 09:27 23.0 75 18.3 0.0 0.0 0 0.0 0.0 1018.0 0.0 0.0 23.0 0.0
22/03/19 09:26 22.9 75 18.2 0.0 0.0 0 0.0 0.0 1018.0 0.0 0.0 22.9 0.0
22/03/19 09:25 22.8 76 18.3 0.0 0.0 0 0.0 0.0 1018.0 0.0 0.0 22.8 0.0
22/03/19 09:24 22.8 77 18.6 0.0 0.0 0 0.0 0.0 1018.0 0.0 0.0 22.8 0.0
22/03/19 09:23 22.7 76 18.2 0.0 0.0 0 0.0 0.0 1018.0 0.0 0.0 22.7 0.0
22/03/19 09:22 22.6 76 18.2 0.0 0.0 0 0.0 0.0 1018.0 0.0 0.0 22.6 0.0
22/03/19 09:21 22.6 77 18.4 0.0 0.0 0 0.0 0.0 1018.0 0.0 0.0 22.6 0.0
22/03/19 09:20 22.6 78 18.6 0.0 0.0 0 0.0 0.0 1018.0 0.0 0.0 22.6 0.0
22/03/19 09:19 22.6 78 18.6 0.0 0.0 0 0.0 0.0 1018.0 0.0 0.0 22.6 0.0
22/03/19 09:18 22.5 77 18.3 0.0 0.0 0 0.0 0.0 1018.0 0.0 0.0 22.5 0.0
22/03/19 09:15 22.7 78 18.7 0.0 0.0 0 0.0 0.0 1018.0 0.0 0.0 22.7 0.0
22/03/19 09:14 22.7 81 19.3 0.0 0.0 0 0.0 0.0 1018.0 0.0 0.0 22.7 0.0
22/03/19 09:13 22.6 82 19.4 0.0 0.0 0 0.0 0.0 1018.0 0.0 0.0 22.6 0.0
22/03/19 09:12 22.6 83 19.6 0.0 0.0 0 0.0 0.0 1018.0 0.0 0.0 22.6 0.0
22/03/19 09:11 22.5 82 19.3 0.0 0.0 0 0.0 0.0 1018.0 0.0 0.0 22.5 0.0
22/03/19 09:10 22.5 84 19.7 0.0 0.0 0 0.0 0.0 1018.0 0.0 0.0 22.5 0.0
22/03/19 09:09 22.3 84 19.5 0.0 0.0 0 0.0 0.0 1018.0 0.0 0.0 22.3 0.0
22/03/19 09:08 22.3 85 19.7 0.0 0.0 0 0.0 0.0 1018.0 0.0 0.0 22.3 0.0
22/03/19 09:07 22.1 86 19.6 0.0 0.0 0 0.0 0.0 1018.0 0.0 0.0 22.1 0.0
22/03/19 09:06 22.1 87 19.8 0.0 0.0 0 0.0 0.0 1018.0 0.0 0.0 22.1 0.0
22/03/19 09:05 21.9 88 19.8 0.0 0.0 0 0.0 0.0 1018.0 0.0 0.0 21.9 0.0
22/03/19 09:04 21.7 89 19.8 0.0 0.0 0 0.0 0.0 1018.0 0.0 0.0 21.7 0.0
22/03/19 09:03 21.5 90 19.8 0.0 0.0 0 0.0 0.0 1018.0 0.0 0.0 21.5 0.0
22/03/19 08:59 21.3 93 20.1 0.0 0.0 0 0.0 0.0 1018.0 0.0 0.0 21.3 0.0
22/03/19 08:58 21.0 93 19.8 0.0 0.0 0 0.0 0.0 1018.0 0.0 0.0 21.0 0.0
22/03/19 08:57 21.0 93 19.8 0.0 0.0 0 0.0 0.0 1018.0 0.0 0.0 21.0 0.0
22/03/19 08:56 20.7 94 19.7 0.0 0.0 0 0.0 0.0 1018.0 0.0 0.0 20.7 0.0
22/03/19 08:55 20.6 95 19.8 0.0 0.0 0 0.0 0.0 1018.0 0.0 0.0 20.6 0.0
22/03/19 08:54 20.6 95 19.8 0.0 0.0 0 0.0 0.0 1018.0 0.0 0.0 20.6 0.0
22/03/19 08:53 20.5 95 19.7 0.0 0.0 0 0.0 0.0 1018.0 0.0 0.0 20.5 0.0
22/03/19 08:52 20.3 95 19.5 0.0 0.0 0 0.0 0.0 1018.0 0.0 0.0 20.3 0.0
22/03/19 08:51 20.1 95 19.3 0.0 0.0 0 0.0 0.0 1018.0 0.0 0.0 20.1 0.0
22/03/19 08:50 19.9 96 19.2 0.0 0.0 0 0.0 0.0 1018.0 0.0 0.0 19.9 0.0
22/03/19 08:49 19.9 96 19.2 0.0 0.0 0 0.0 0.0 1018.0 0.0 0.0 19.9 0.0
22/03/19 08:48 19.8 96 19.1 0.0 0.0 0 0.0 0.0 1018.0 0.0 0.0 19.8 0.0
22/03/19 08:45 19.2 97 18.7 0.0 0.0 0 0.0 0.0 1018.0 0.0 0.0 19.2 0.0
22/03/19 08:44 19.2 97 18.7 0.0 0.0 0 0.0 0.0 1018.0 0.0 0.0 19.2 0.0
22/03/19 08:43 19.2 97 18.7 0.0 0.0 0 0.0 0.0 1018.0 0.0 0.0 19.2 0.0
22/03/19 08:42 19.2 97 18.7 0.0 0.0 0 0.0 0.0 1018.0 0.0 0.0 19.2 0.0
22/03/19 08:41 19.1 97 18.6 0.0 0.0 0 0.0 0.0 1018.0 0.0 0.0 19.1 0.0
22/03/19 08:40 18.8 98 18.5 0.0 0.0 0 0.0 0.0 1018.0 0.0 0.0 18.8 0.0
22/03/19 08:39 18.7 98 18.4 0.0 0.0 0 0.0 0.0 1018.0 0.0 0.0 18.7 0.0
22/03/19 08:38 18.5 98 18.2 0.0 0.0 0 0.0 0.0 1018.0 0.0 0.0 18.5 0.0
22/03/19 08:37 18.4 98 18.1 0.0 0.0 0 0.0 0.0 1018.0 0.0 0.0 18.4 0.0
22/03/19 08:36 18.3 98 18.0 0.0 0.0 0 0.0 0.0 1018.0 0.0 0.0 18.3 0.0
22/03/19 08:35 18.2 98 17.9 0.0 0.0 0 0.0 0.0 1018.0 0.0 0.0 18.2 0.0
22/03/19 08:34 18.1 98 17.8 0.0 0.0 0 0.0 0.0 1018.0 0.0 0.0 18.1 0.0
22/03/19 08:33 17.9 98 17.6 0.0 0.0 0 0.0 0.0 1018.0 0.0 0.0 17.9 0.0
22/03/19 08:30 17.4 98 17.1 0.0 0.0 0 0.0 0.0 1018.0 0.0 0.0 17.4 0.0
22/03/19 08:29 17.3 98 17.0 0.0 0.0 0 0.0 0.0 1018.0 0.0 0.0 17.3 0.0
22/03/19 08:28 17.2 98 16.9 0.0 0.0 0 0.0 0.0 1018.0 0.0 0.0 17.2 0.0
22/03/19 08:27 17.1 98 16.8 0.0 0.0 0 0.0 0.0 1018.0 0.0 0.0 17.1 0.0
22/03/19 08:26 17.0 98 16.7 0.0 0.0 0 0.0 0.0 1018.0 0.0 0.0 17.0 0.0
22/03/19 08:25 16.9 98 16.6 0.0 0.0 0 0.0 0.0 1018.0 0.0 0.0 16.9 0.0
22/03/19 08:24 16.8 98 16.5 0.0 0.0 0 0.0 0.0 1018.0 0.0 0.0 16.8 0.0
22/03/19 08:23 16.8 98 16.5 0.0 0.0 0 0.0 0.0 1018.0 0.0 0.0 16.8 0.0
22/03/19 08:22 16.7 98 16.4 0.0 0.0 0 0.0 0.0 1018.0 0.0 0.0 16.7 0.0
22/03/19 08:21 16.6 98 16.3 0.0 0.0 0 0.0 0.0 1018.0 0.0 0.0 16.6 0.0
22/03/19 08:20 16.6 98 16.3 0.0 0.0 0 0.0 0.0 1018.0 0.0 0.0 16.6 0.0
22/03/19 08:19 16.5 98 16.2 0.0 0.0 0 0.0 0.0 1018.0 0.0 0.0 16.5 0.0
22/03/19 08:18 16.5 98 16.2 0.0 0.0 0 0.0 0.0 1018.0 0.0 0.0 16.5 0.0
22/03/19 08:15 16.4 98 16.1 0.0 0.0 0 0.0 0.0 1018.0 0.0 0.0 16.4 0.0
22/03/19 08:14 16.3 98 16.0 0.0 0.0 0 0.0 0.0 1018.0 0.0 0.0 16.3 0.0
22/03/19 08:13 16.3 98 16.0 0.0 0.0 0 0.0 0.0 1018.0 0.0 0.0 16.3 0.0
22/03/19 08:12 16.3 98 16.0 0.0 0.0 0 0.0 0.0 1018.0 0.0 0.0 16.3 0.0
22/03/19 08:11 16.3 98 16.0 0.0 0.0 0 0.0 0.0 1018.0 0.0 0.0 16.3 0.0
22/03/19 08:10 16.2 98 15.9 0.0 0.0 0 0.0 0.0 1018.0 0.0 0.0 16.2 0.0
22/03/19 08:09 16.1 98 15.8 0.0 0.0 0 0.0 0.0 1018.0 0.0 0.0 16.1 0.0
22/03/19 08:08 16.1 98 15.8 0.0 0.0 0 0.0 0.0 1018.0 0.0 0.0 16.1 0.0
22/03/19 08:07 16.1 98 15.8 0.0 0.0 0 0.0 0.0 1018.0 0.0 0.0 16.1 0.0
22/03/19 08:06 16.1 98 15.8 0.0 0.0 0 0.0 0.0 1018.0 0.0 0.0 16.1 0.0
22/03/19 08:05 16.1 98 15.8 0.0 0.0 0 0.0 0.0 1018.0 0.0 0.0 16.1 0.0
22/03/19 08:04 16.1 98 15.8 0.0 0.0 0 0.0 0.0 1018.0 0.0 0.0 16.1 0.0
22/03/19 08:03 16.1 98 15.8 0.0 0.0 0 0.0 0.0 1018.0 0.0 0.0 16.1 0.0
22/03/19 08:00 16.0 98 15.7 0.0 0.0 0 0.0 0.0 1018.0 0.0 0.0 16.0 0.0
22/03/19 07:59 15.9 98 15.6 0.0 0.0 0 0.0 0.0 1018.0 0.0 0.0 15.9 0.0
22/03/19 07:58 15.9 98 15.6 0.0 0.0 0 0.0 0.0 1018.0 0.0 0.0 15.9 0.0
22/03/19 07:57 15.9 98 15.6 0.0 0.0 0 0.0 0.0 1018.0 0.0 0.0 15.9 0.0
22/03/19 07:56 15.8 98 15.5 0.0 0.0 0 0.0 0.0 1018.0 0.0 0.0 15.8 0.0
22/03/19 07:55 15.8 98 15.5 0.0 0.0 0 0.0 0.0 1018.0 0.0 0.0 15.8 0.0
22/03/19 07:54 15.7 98 15.4 0.0 0.0 0 0.0 0.0 1018.0 0.0 0.0 15.7 0.0
22/03/19 07:53 15.7 98 15.4 0.0 0.0 0 0.0 0.0 1018.0 0.0 0.0 15.7 0.0
22/03/19 07:52 15.6 98 15.3 0.0 0.0 0 0.0 0.0 1018.0 0.0 0.0 15.6 0.0
22/03/19 07:51 15.6 98 15.3 0.0 0.0 0 0.0 0.0 1018.0 0.0 0.0 15.6 0.0
22/03/19 07:50 15.6 98 15.3 0.0 0.0 0 0.0 0.0 1018.0 0.0 0.0 15.6 0.0
22/03/19 07:49 15.6 98 15.3 0.0 0.0 0 0.0 0.0 1018.0 0.0 0.0 15.6 0.0
22/03/19 07:48 15.5 98 15.2 0.0 0.0 0 0.0 0.0 1018.0 0.0 0.0 15.5 0.0
22/03/19 07:45 15.4 98 15.1 0.0 0.0 0 0.0 0.0 1018.0 0.0 0.0 15.4 0.0
22/03/19 07:44 15.4 98 15.1 0.0 0.0 0 0.0 0.0 1018.0 0.0 0.0 15.4 0.0
22/03/19 07:43 15.4 98 15.1 0.0 0.0 0 0.0 0.0 1018.0 0.0 0.0 15.4 0.0
22/03/19 07:42 15.4 98 15.1 0.0 0.0 0 0.0 0.0 1018.0 0.0 0.0 15.4 0.0
22/03/19 07:41 15.4 98 15.1 0.0 0.0 0 0.0 0.0 1018.0 0.0 0.0 15.4 0.0
22/03/19 07:40 15.4 98 15.1 0.0 0.0 0 0.0 0.0 1018.0 0.0 0.0 15.4 0.0
22/03/19 07:39 15.4 98 15.1 0.0 0.0 0 0.0 0.0 1018.0 0.0 0.0 15.4 0.0
22/03/19 07:38 15.4 98 15.1 0.0 0.0 0 0.0 0.0 1018.0 0.0 0.0 15.4 0.0
22/03/19 07:37 15.4 98 15.1 0.0 0.0 0 0.0 0.0 1018.0 0.0 0.0 15.4 0.0
22/03/19 07:36 15.3 98 15.0 0.0 0.0 0 0.0 0.0 1018.0 0.0 0.0 15.3 0.0
22/03/19 07:35 15.3 98 15.0 0.0 0.0 0 0.0 0.0 1018.0 0.0 0.0 15.3 0.0
22/03/19 07:34 15.3 98 15.0 0.0 0.0 0 0.0 0.0 1018.0 0.0 0.0 15.3 0.0
22/03/19 07:33 15.3 98 15.0 0.0 0.0 0 0.0 0.0 1018.0 0.0 0.0 15.3 0.0
22/03/19 07:30 15.2 98 14.9 0.0 0.0 0 0.0 0.0 1018.0 0.0 0.0 15.2 0.0
22/03/19 07:29 15.2 98 14.9 0.0 0.0 0 0.0 0.0 1018.0 0.0 0.0 15.2 0.0
22/03/19 07:28 15.1 98 14.8 0.0 0.0 0 0.0 0.0 1018.0 0.0 0.0 15.1 0.0
22/03/19 07:27 15.1 98 14.8 0.0 0.0 0 0.0 0.0 1018.0 0.0 0.0 15.1 0.0
22/03/19 07:26 15.1 98 14.8 0.0 0.0 0 0.0 0.0 1018.0 0.0 0.0 15.1 0.0
22/03/19 07:25 15.1 98 14.8 0.0 0.0 0 0.0 0.0 1018.0 0.0 0.0 15.1 0.0
22/03/19 07:24 15.1 98 14.8 0.0 0.0 0 0.0 0.0 1018.0 0.0 0.0 15.1 0.0
22/03/19 07:23 15.1 98 14.8 0.0 0.0 0 0.0 0.0 1018.0 0.0 0.0 15.1 0.0
22/03/19 07:22 15.1 98 14.8 0.0 0.0 0 0.0 0.0 1018.0 0.0 0.0 15.1 0.0
22/03/19 07:21 15.1 98 14.8 0.0 0.0 0 0.0 0.0 1018.0 0.0 0.0 15.1 0.0
22/03/19 07:20 15.1 98 14.8 0.0 0.0 0 0.0 0.0 1018.0 0.0 0.0 15.1 0.0
22/03/19 07:19 15.1 98 14.8 0.0 0.0 0 0.0 0.0 1018.0 0.0 0.0 15.1 0.0
22/03/19 07:18 15.1 98 14.8 0.0 0.0 0 0.0 0.0 1018.0 0.0 0.0 15.1 0.0
22/03/19 07:15 15.0 98 14.7 0.0 0.0 0 0.0 0.0 1018.0 0.0 0.0 15.0 0.0
22/03/19 07:14 15.0 98 14.7 0.0 0.0 0 0.0 0.0 1018.0 0.0 0.0 15.0 0.0
22/03/19 07:13 15.0 98 14.7 0.0 0.0 0 0.0 0.0 1018.0 0.0 0.0 15.0 0.0
22/03/19 07:12 15.0 98 14.7 0.0 0.0 0 0.0 0.0 1018.0 0.0 0.0 15.0 0.0
22/03/19 07:11 15.0 98 14.7 0.0 0.0 0 0.0 0.0 1018.0 0.0 0.0 15.0 0.0
22/03/19 07:10 15.0 98 14.7 0.0 0.0 0 0.0 0.0 1018.0 0.0 0.0 15.0 0.0
22/03/19 07:09 14.9 98 14.6 0.0 0.0 0 0.0 0.0 1018.0 0.0 0.0 14.9 0.0
22/03/19 07:08 14.9 98 14.6 0.0 0.0 0 0.0 0.0 1018.0 0.0 0.0 14.9 0.0
22/03/19 07:07 14.9 98 14.6 0.0 0.0 0 0.0 0.0 1017.0 0.0 0.0 14.9 0.0
22/03/19 07:06 14.9 98 14.6 0.0 0.0 0 0.0 0.0 1017.0 0.0 0.0 14.9 0.0
22/03/19 07:05 14.9 98 14.6 0.0 0.0 0 0.0 0.0 1017.0 0.0 0.0 14.9 0.0
22/03/19 07:04 14.8 98 14.5 0.0 0.0 0 0.0 0.0 1017.0 0.0 0.0 14.8 0.0
22/03/19 07:03 14.9 98 14.6 0.0 0.0 0 0.0 0.0 1017.0 0.0 0.0 14.9 0.0
22/03/19 06:59 14.8 98 14.5 0.0 0.0 0 0.0 0.0 1017.0 0.0 0.0 14.8 0.0
22/03/19 06:58 14.8 98 14.5 0.0 0.0 0 0.0 0.0 1017.0 0.0 0.0 14.8 0.0
22/03/19 06:57 14.8 98 14.5 0.0 0.0 0 0.0 0.0 1017.0 0.0 0.0 14.8 0.0
22/03/19 06:56 14.8 98 14.5 0.0 0.0 0 0.0 0.0 1017.0 0.0 0.0 14.8 0.0
22/03/19 06:55 14.8 98 14.5 0.0 0.0 0 0.0 0.0 1017.0 0.0 0.0 14.8 0.0
22/03/19 06:54 14.8 98 14.5 0.0 0.0 0 0.0 0.0 1017.0 0.0 0.0 14.8 0.0
22/03/19 06:53 14.8 98 14.5 0.0 0.0 0 0.0 0.0 1017.0 0.0 0.0 14.8 0.0
22/03/19 06:52 14.8 98 14.5 0.0 0.0 0 0.0 0.0 1017.0 0.0 0.0 14.8 0.0
22/03/19 06:51 14.8 98 14.5 0.0 0.0 0 0.0 0.0 1017.0 0.0 0.0 14.8 0.0
22/03/19 06:50 14.8 98 14.5 0.0 0.0 0 0.0 0.0 1017.0 0.0 0.0 14.8 0.0
22/03/19 06:49 14.8 98 14.5 0.0 0.0 0 0.0 0.0 1017.0 0.0 0.0 14.8 0.0
22/03/19 06:48 14.8 98 14.5 0.0 0.0 0 0.0 0.0 1017.0 0.0 0.0 14.8 0.0
22/03/19 06:45 14.9 98 14.6 0.0 0.0 0 0.0 0.0 1017.0 0.0 0.0 14.9 0.0
22/03/19 06:44 14.9 98 14.6 0.0 0.0 0 0.0 0.0 1017.0 0.0 0.0 14.9 0.0
22/03/19 06:43 14.9 98 14.6 0.0 0.0 0 0.0 0.0 1017.0 0.0 0.0 14.9 0.0
22/03/19 06:42 14.9 98 14.6 0.0 0.0 0 0.0 0.0 1017.0 0.0 0.0 14.9 0.0
22/03/19 06:41 14.9 98 14.6 0.0 0.0 0 0.0 0.0 1017.0 0.0 0.0 14.9 0.0
22/03/19 06:40 14.9 98 14.6 0.0 0.0 0 0.0 0.0 1017.0 0.0 0.0 14.9 0.0
22/03/19 06:39 14.9 98 14.6 0.0 0.0 0 0.0 0.0 1017.0 0.0 0.0 14.9 0.0
22/03/19 06:38 14.9 98 14.6 0.0 0.0 0 0.0 0.0 1017.0 0.0 0.0 14.9 0.0
22/03/19 06:37 14.9 98 14.6 0.0 0.0 0 0.0 0.0 1017.0 0.0 0.0 14.9 0.0
22/03/19 06:36 14.9 98 14.6 0.0 0.0 0 0.0 0.0 1017.0 0.0 0.0 14.9 0.0
22/03/19 06:35 14.9 98 14.6 0.0 0.0 0 0.0 0.0 1017.0 0.0 0.0 14.9 0.0
22/03/19 06:34 14.9 98 14.6 0.0 0.0 0 0.0 0.0 1017.0 0.0 0.0 14.9 0.0
22/03/19 06:33 14.9 98 14.6 0.0 0.0 0 0.0 0.0 1017.0 0.0 0.0 14.9 0.0
22/03/19 06:22 15.0 98 14.7 0.0 0.0 0 0.0 0.0 1017.0 0.0 0.0 15.0 0.0
22/03/19 06:21 15.0 98 14.7 0.0 0.0 0 0.0 0.0 1017.0 0.0 0.0 15.0 0.0
22/03/19 06:20 15.0 98 14.7 0.0 0.0 0 0.0 0.0 1017.0 0.0 0.0 15.0 0.0
22/03/19 06:19 15.0 98 14.7 0.0 0.0 0 0.0 0.0 1017.0 0.0 0.0 15.0 0.0
22/03/19 06:18 15.0 98 14.7 0.0 0.0 0 0.0 0.0 1017.0 0.0 0.0 15.0 0.0
22/03/19 06:14 15.0 98 14.7 0.0 0.0 0 0.0 0.0 1017.0 0.0 0.0 15.0 0.0
22/03/19 06:13 15.0 98 14.7 0.0 0.0 0 0.0 0.0 1017.0 0.0 0.0 15.0 0.0
22/03/19 06:12 15.0 98 14.7 0.0 0.0 0 0.0 0.0 1017.0 0.0 0.0 15.0 0.0
22/03/19 06:11 15.0 98 14.7 0.0 0.0 0 0.0 0.0 1017.0 0.0 0.0 15.0 0.0
22/03/19 06:10 15.0 98 14.7 0.0 0.0 0 0.0 0.0 1017.0 0.0 0.0 15.0 0.0
22/03/19 06:09 15.0 98 14.7 0.0 0.0 0 0.0 0.0 1017.0 0.0 0.0 15.0 0.0
22/03/19 06:08 15.0 98 14.7 0.0 0.0 0 0.0 0.0 1017.0 0.0 0.0 15.0 0.0
22/03/19 06:07 15.0 98 14.7 0.0 0.0 0 0.0 0.0 1016.0 0.0 0.0 15.0 0.0
22/03/19 06:06 15.0 98 14.7 0.0 0.0 0 0.0 0.0 1016.0 0.0 0.0 15.0 0.0
22/03/19 06:05 15.1 98 14.8 0.0 0.0 0 0.0 0.0 1016.0 0.0 0.0 15.1 0.0
22/03/19 06:04 15.1 98 14.8 0.0 0.0 0 0.0 0.0 1016.0 0.0 0.0 15.1 0.0
22/03/19 06:03 15.0 98 14.7 0.0 0.0 0 0.0 0.0 1016.0 0.0 0.0 15.0 0.0
22/03/19 06:00 15.1 98 14.8 0.0 0.0 0 0.0 0.0 1016.0 0.0 0.0 15.1 0.0
22/03/19 05:59 15.1 98 14.8 0.0 0.0 0 0.0 0.0 1016.0 0.0 0.0 15.1 0.0
22/03/19 05:58 15.1 98 14.8 0.0 0.0 0 0.0 0.0 1016.0 0.0 0.0 15.1 0.0
22/03/19 05:57 15.1 98 14.8 0.0 0.0 0 0.0 0.0 1016.0 0.0 0.0 15.1 0.0
22/03/19 05:56 15.1 98 14.8 0.0 0.0 0 0.0 0.0 1016.0 0.0 0.0 15.1 0.0
22/03/19 05:55 15.1 98 14.8 0.0 0.0 0 0.0 0.0 1016.0 0.0 0.0 15.1 0.0
22/03/19 05:54 15.1 98 14.8 0.0 0.0 0 0.0 0.0 1016.0 0.0 0.0 15.1 0.0
22/03/19 05:53 15.1 98 14.8 0.0 0.0 0 0.0 0.0 1016.0 0.0 0.0 15.1 0.0
22/03/19 05:52 15.1 98 14.8 0.0 0.0 0 0.0 0.0 1016.0 0.0 0.0 15.1 0.0
22/03/19 05:51 15.1 98 14.8 0.0 0.0 0 0.0 0.0 1016.0 0.0 0.0 15.1 0.0
22/03/19 05:50 15.1 98 14.8 0.0 0.0 0 0.0 0.0 1016.0 0.0 0.0 15.1 0.0
22/03/19 05:49 15.1 98 14.8 0.0 0.0 0 0.0 0.0 1016.0 0.0 0.0 15.1 0.0
22/03/19 05:48 15.1 98 14.8 0.0 0.0 0 0.0 0.0 1016.0 0.0 0.0 15.1 0.0
22/03/19 05:36 15.2 98 14.9 0.0 0.0 0 0.0 0.0 1017.0 0.0 0.0 15.2 0.0
22/03/19 05:35 15.2 98 14.9 0.0 0.0 0 0.0 0.0 1017.0 0.0 0.0 15.2 0.0
22/03/19 05:34 15.2 98 14.9 0.0 0.0 0 0.0 0.0 1017.0 0.0 0.0 15.2 0.0
22/03/19 05:33 15.3 98 15.0 0.0 0.0 0 0.0 0.0 1017.0 0.0 0.0 15.3 0.0
22/03/19 05:30 15.3 98 15.0 0.0 0.0 0 0.0 0.0 1017.0 0.0 0.0 15.3 0.0
22/03/19 05:29 15.3 98 15.0 0.0 0.0 0 0.0 0.0 1017.0 0.0 0.0 15.3 0.0
22/03/19 05:28 15.4 98 15.1 0.0 0.0 0 0.0 0.0 1017.0 0.0 0.0 15.4 0.0
22/03/19 05:27 15.4 98 15.1 0.0 0.0 0 0.0 0.0 1017.0 0.0 0.0 15.4 0.0
22/03/19 05:26 15.4 98 15.1 0.0 0.0 0 0.0 0.0 1017.0 0.0 0.0 15.4 0.0
22/03/19 05:25 15.4 98 15.1 0.0 0.0 0 0.0 0.0 1017.0 0.0 0.0 15.4 0.0
22/03/19 05:24 15.4 98 15.1 0.0 0.0 0 0.0 0.0 1017.0 0.0 0.0 15.4 0.0
22/03/19 05:23 15.4 98 15.1 0.0 0.0 0 0.0 0.0 1017.0 0.0 0.0 15.4 0.0
22/03/19 05:22 15.4 98 15.1 0.0 0.0 0 0.0 0.0 1017.0 0.0 0.0 15.4 0.0
22/03/19 05:21 15.4 98 15.1 0.0 0.0 0 0.0 0.0 1017.0 0.0 0.0 15.4 0.0
22/03/19 05:20 15.4 98 15.1 0.0 0.0 0 0.0 0.0 1017.0 0.0 0.0 15.4 0.0
22/03/19 05:19 15.4 98 15.1 0.0 0.0 0 0.0 0.0 1017.0 0.0 0.0 15.4 0.0
22/03/19 05:18 15.4 97 14.9 0.0 0.0 0 0.0 0.0 1017.0 0.0 0.0 15.4 0.0
22/03/19 05:03 15.7 98 15.4 0.0 0.0 0 0.0 0.0 1017.0 0.0 0.0 15.7 0.0
22/03/19 05:00 15.7 98 15.4 0.0 0.0 0 0.0 0.0 1017.0 0.0 0.0 15.7 0.0
22/03/19 04:59 15.8 98 15.5 0.0 0.0 0 0.0 0.0 1017.0 0.0 0.0 15.8 0.0
22/03/19 04:58 15.8 98 15.5 0.0 0.0 0 0.0 0.0 1017.0 0.0 0.0 15.8 0.0
22/03/19 04:57 15.8 98 15.5 0.0 0.0 0 0.0 0.0 1017.0 0.0 0.0 15.8 0.0
22/03/19 04:56 15.8 98 15.5 0.0 0.0 0 0.0 0.0 1017.0 0.0 0.0 15.8 0.0
22/03/19 04:55 15.8 98 15.5 0.0 0.0 0 0.0 0.0 1017.0 0.0 0.0 15.8 0.0
22/03/19 04:54 15.8 98 15.5 0.0 0.0 0 0.0 0.0 1017.0 0.0 0.0 15.8 0.0
22/03/19 04:53 15.8 98 15.5 0.0 0.0 0 0.0 0.0 1017.0 0.0 0.0 15.8 0.0
22/03/19 04:52 15.8 98 15.5 0.0 0.0 0 0.0 0.0 1017.0 0.0 0.0 15.8 0.0
22/03/19 04:51 15.8 98 15.5 0.0 0.0 0 0.0 0.0 1017.0 0.0 0.0 15.8 0.0
22/03/19 04:50 15.8 98 15.5 0.0 0.0 0 0.0 0.0 1017.0 0.0 0.0 15.8 0.0
22/03/19 04:49 15.8 98 15.5 0.0 0.0 0 0.0 0.0 1017.0 0.0 0.0 15.8 0.0
22/03/19 04:48 15.8 98 15.5 0.0 0.0 0 0.0 0.0 1017.0 0.0 0.0 15.8 0.0
22/03/19 04:45 15.8 98 15.5 0.0 0.0 0 0.0 0.0 1017.0 0.0 0.0 15.8 0.0
22/03/19 04:44 15.8 98 15.5 0.0 0.0 0 0.0 0.0 1017.0 0.0 0.0 15.8 0.0
22/03/19 04:43 15.8 98 15.5 0.0 0.0 0 0.0 0.0 1017.0 0.0 0.0 15.8 0.0
22/03/19 04:42 15.8 98 15.5 0.0 0.0 0 0.0 0.0 1017.0 0.0 0.0 15.8 0.0
22/03/19 04:41 15.8 98 15.5 0.0 0.0 0 0.0 0.0 1017.0 0.0 0.0 15.8 0.0
22/03/19 04:40 15.8 98 15.5 0.0 0.0 0 0.0 0.0 1017.0 0.0 0.0 15.8 0.0
22/03/19 04:39 15.8 98 15.5 0.0 0.0 0 0.0 0.0 1017.0 0.0 0.0 15.8 0.0
22/03/19 04:38 15.8 98 15.5 0.0 0.0 0 0.0 0.0 1017.0 0.0 0.0 15.8 0.0
22/03/19 04:37 15.8 98 15.5 0.0 0.0 0 0.0 0.0 1017.0 0.0 0.0 15.8 0.0
22/03/19 04:36 15.8 98 15.5 0.0 0.0 0 0.0 0.0 1017.0 0.0 0.0 15.8 0.0
22/03/19 04:35 15.8 98 15.5 0.0 0.0 0 0.0 0.0 1017.0 0.0 0.0 15.8 0.0
22/03/19 04:34 15.8 98 15.5 0.0 0.0 0 0.0 0.0 1017.0 0.0 0.0 15.8 0.0
22/03/19 04:33 15.8 98 15.5 0.0 0.0 0 0.0 0.0 1017.0 0.0 0.0 15.8 0.0
22/03/19 04:26 15.8 98 15.5 0.0 0.0 0 0.0 0.0 1017.0 0.0 0.0 15.8 0.0
22/03/19 04:25 15.9 98 15.6 0.0 0.0 0 0.0 0.0 1017.0 0.0 0.0 15.9 0.0
22/03/19 04:24 15.9 98 15.6 0.0 0.0 0 0.0 0.0 1017.0 0.0 0.0 15.9 0.0
22/03/19 04:23 15.8 98 15.5 0.0 0.0 0 0.0 0.0 1017.0 0.0 0.0 15.8 0.0
22/03/19 04:22 15.8 98 15.5 0.0 0.0 0 0.0 0.0 1018.0 0.0 0.0 15.8 0.0
22/03/19 04:21 15.8 98 15.5 0.0 0.0 0 0.0 0.0 1018.0 0.0 0.0 15.8 0.0
22/03/19 04:20 15.8 98 15.5 0.0 0.0 0 0.0 0.0 1018.0 0.0 0.0 15.8 0.0
22/03/19 04:19 15.8 98 15.5 0.0 0.0 0 0.0 0.0 1018.0 0.0 0.0 15.8 0.0
22/03/19 04:18 15.8 98 15.5 0.0 0.0 0 0.0 0.0 1018.0 0.0 0.0 15.8 0.0
22/03/19 04:15 15.7 98 15.4 0.0 0.0 0 0.0 0.0 1018.0 0.0 0.0 15.7 0.0
22/03/19 04:14 15.7 98 15.4 0.0 0.0 0 0.0 0.0 1018.0 0.0 0.0 15.7 0.0
22/03/19 04:13 15.7 98 15.4 0.0 0.0 0 0.0 0.0 1018.0 0.0 0.0 15.7 0.0
22/03/19 04:12 15.7 98 15.4 0.0 0.0 0 0.0 0.0 1018.0 0.0 0.0 15.7 0.0
22/03/19 04:11 15.7 98 15.4 0.0 0.0 0 0.0 0.0 1018.0 0.0 0.0 15.7 0.0
22/03/19 04:10 15.7 98 15.4 0.0 0.0 0 0.0 0.0 1018.0 0.0 0.0 15.7 0.0
22/03/19 04:09 15.7 98 15.4 0.0 0.0 0 0.0 0.0 1018.0 0.0 0.0 15.7 0.0
22/03/19 04:08 15.7 98 15.4 0.0 0.0 0 0.0 0.0 1018.0 0.0 0.0 15.7 0.0
22/03/19 04:07 15.7 98 15.4 0.0 0.0 0 0.0 0.0 1017.0 0.0 0.0 15.7 0.0
22/03/19 04:06 15.7 98 15.4 0.0 0.0 0 0.0 0.0 1017.0 0.0 0.0 15.7 0.0
22/03/19 04:05 15.7 98 15.4 0.0 0.0 0 0.0 0.0 1017.0 0.0 0.0 15.7 0.0
22/03/19 04:04 15.7 98 15.4 0.0 0.0 0 0.0 0.0 1017.0 0.0 0.0 15.7 0.0
22/03/19 04:03 15.7 98 15.4 0.0 0.0 0 0.0 0.0 1017.0 0.0 0.0 15.7 0.0
22/03/19 04:00 15.7 97 15.2 0.0 0.0 0 0.0 0.0 1017.0 0.0 0.0 15.7 0.0
22/03/19 03:59 15.7 98 15.4 0.0 0.0 0 0.0 0.0 1017.0 0.0 0.0 15.7 0.0
22/03/19 03:58 15.7 98 15.4 0.0 0.0 0 0.0 0.0 1017.0 0.0 0.0 15.7 0.0
22/03/19 03:57 15.8 98 15.5 0.0 0.0 0 0.0 0.0 1017.0 0.0 0.0 15.8 0.0
22/03/19 03:56 15.8 98 15.5 0.0 0.0 0 0.0 0.0 1017.0 0.0 0.0 15.8 0.0
22/03/19 03:55 15.8 98 15.5 0.0 0.0 0 0.0 0.0 1017.0 0.0 0.0 15.8 0.0
22/03/19 03:54 15.8 98 15.5 0.0 0.0 0 0.0 0.0 1017.0 0.0 0.0 15.8 0.0
22/03/19 03:53 15.8 98 15.5 0.0 0.0 0 0.0 0.0 1017.0 0.0 0.0 15.8 0.0
22/03/19 03:52 15.8 98 15.5 0.0 0.0 0 0.0 0.0 1017.0 0.0 0.0 15.8 0.0
22/03/19 03:51 15.8 98 15.5 0.0 0.0 0 0.0 0.0 1017.0 0.0 0.0 15.8 0.0
22/03/19 03:50 15.8 98 15.5 0.0 0.0 0 0.0 0.0 1017.0 0.0 0.0 15.8 0.0
22/03/19 03:49 15.8 97 15.3 0.0 0.0 0 0.0 0.0 1017.0 0.0 0.0 15.8 0.0
22/03/19 03:48 15.8 97 15.3 0.0 0.0 0 0.0 0.0 1017.0 0.0 0.0 15.8 0.0
22/03/19 03:45 15.8 97 15.3 0.0 0.0 0 0.0 0.0 1017.0 0.0 0.0 15.8 0.0
22/03/19 03:44 15.8 97 15.3 0.0 0.0 0 0.0 0.0 1017.0 0.0 0.0 15.8 0.0
22/03/19 03:43 15.8 97 15.3 0.0 0.0 0 0.0 0.0 1017.0 0.0 0.0 15.8 0.0
22/03/19 03:42 15.8 97 15.3 0.0 0.0 0 0.0 0.0 1017.0 0.0 0.0 15.8 0.0
22/03/19 03:41 15.8 97 15.3 0.0 0.0 0 0.0 0.0 1017.0 0.0 0.0 15.8 0.0
22/03/19 03:40 15.8 97 15.3 0.0 0.0 0 0.0 0.0 1017.0 0.0 0.0 15.8 0.0
22/03/19 03:39 15.8 97 15.3 0.0 0.0 0 0.0 0.0 1017.0 0.0 0.0 15.8 0.0
22/03/19 03:38 15.8 97 15.3 0.0 0.0 0 0.0 0.0 1017.0 0.0 0.0 15.8 0.0
22/03/19 03:37 15.8 97 15.3 0.0 0.0 0 0.0 0.0 1017.0 0.0 0.0 15.8 0.0
22/03/19 03:36 15.8 97 15.3 0.0 0.0 0 0.0 0.0 1017.0 0.0 0.0 15.8 0.0
22/03/19 03:35 15.8 97 15.3 0.0 0.0 0 0.0 0.0 1017.0 0.0 0.0 15.8 0.0
22/03/19 03:34 15.8 97 15.3 0.0 0.0 0 0.0 0.0 1017.0 0.0 0.0 15.8 0.0
22/03/19 03:33 15.8 97 15.3 0.0 0.0 0 0.0 0.0 1017.0 0.0 0.0 15.8 0.0
22/03/19 03:30 15.8 97 15.3 0.0 0.0 0 0.0 0.0 1017.0 0.0 0.0 15.8 0.0
22/03/19 03:29 15.8 97 15.3 0.0 0.0 0 0.0 0.0 1017.0 0.0 0.0 15.8 0.0
22/03/19 03:28 15.8 97 15.3 0.0 0.0 0 0.0 0.0 1017.0 0.0 0.0 15.8 0.0
22/03/19 03:27 15.8 97 15.3 0.0 0.0 0 0.0 0.0 1017.0 0.0 0.0 15.8 0.0
22/03/19 03:26 15.9 97 15.4 0.0 0.0 0 0.0 0.0 1017.0 0.0 0.0 15.9 0.0
22/03/19 03:25 15.9 97 15.4 0.0 0.0 0 0.0 0.0 1017.0 0.0 0.0 15.9 0.0
22/03/19 03:24 15.8 97 15.3 0.0 0.0 0 0.0 0.0 1017.0 0.0 0.0 15.8 0.0
22/03/19 03:23 15.9 97 15.4 0.0 0.0 0 0.0 0.0 1017.0 0.0 0.0 15.9 0.0
22/03/19 03:22 15.9 97 15.4 0.0 0.0 0 0.0 0.0 1018.0 0.0 0.0 15.9 0.0
22/03/19 03:21 15.9 97 15.4 0.0 0.0 0 0.0 0.0 1018.0 0.0 0.0 15.9 0.0
22/03/19 03:20 15.9 97 15.4 0.0 0.0 0 0.0 0.0 1018.0 0.0 0.0 15.9 0.0
22/03/19 03:19 15.9 97 15.4 0.0 0.0 0 0.0 0.0 1018.0 0.0 0.0 15.9 0.0
22/03/19 03:18 15.9 97 15.4 0.0 0.0 0 0.0 0.0 1018.0 0.0 0.0 15.9 0.0
22/03/19 03:15 15.9 97 15.4 0.0 0.0 0 0.0 0.0 1018.0 0.0 0.0 15.9 0.0
22/03/19 03:14 15.9 97 15.4 0.0 0.0 0 0.0 0.0 1018.0 0.0 0.0 15.9 0.0
22/03/19 03:13 15.9 97 15.4 0.0 0.0 0 0.0 0.0 1018.0 0.0 0.0 15.9 0.0
22/03/19 03:12 15.9 97 15.4 0.0 0.0 0 0.0 0.0 1018.0 0.0 0.0 15.9 0.0
22/03/19 03:11 15.9 97 15.4 0.0 0.0 0 0.0 0.0 1018.0 0.0 0.0 15.9 0.0
22/03/19 03:10 15.9 97 15.4 0.0 0.0 0 0.0 0.0 1018.0 0.0 0.0 15.9 0.0
22/03/19 03:09 15.9 97 15.4 0.0 0.0 0 0.0 0.0 1018.0 0.0 0.0 15.9 0.0
22/03/19 03:08 15.9 97 15.4 0.0 0.0 0 0.0 0.0 1018.0 0.0 0.0 15.9 0.0
22/03/19 03:07 16.0 97 15.5 0.0 0.0 0 0.0 0.0 1017.0 0.0 0.0 16.0 0.0
22/03/19 03:06 16.0 97 15.5 0.0 0.0 0 0.0 0.0 1017.0 0.0 0.0 16.0 0.0
22/03/19 03:05 16.0 97 15.5 0.0 0.0 0 0.0 0.0 1017.0 0.0 0.0 16.0 0.0
22/03/19 03:04 16.0 97 15.5 0.0 0.0 0 0.0 0.0 1017.0 0.0 0.0 16.0 0.0
22/03/19 03:03 16.0 97 15.5 0.0 0.0 0 0.0 0.0 1017.0 0.0 0.0 16.0 0.0
22/03/19 03:00 16.0 97 15.5 0.0 0.0 0 0.0 0.0 1017.0 0.0 0.0 16.0 0.0
22/03/19 02:59 16.0 96 15.4 0.0 0.0 0 0.0 0.0 1017.0 0.0 0.0 16.0 0.0
22/03/19 02:58 16.0 96 15.4 0.0 0.0 0 0.0 0.0 1017.0 0.0 0.0 16.0 0.0
22/03/19 02:57 16.0 96 15.4 0.0 0.0 0 0.0 0.0 1017.0 0.0 0.0 16.0 0.0
22/03/19 02:56 16.1 96 15.5 0.0 0.0 0 0.0 0.0 1017.0 0.0 0.0 16.1 0.0
22/03/19 02:55 16.1 96 15.5 0.0 0.0 0 0.0 0.0 1017.0 0.0 0.0 16.1 0.0
22/03/19 02:54 16.1 97 15.6 0.0 0.0 0 0.0 0.0 1017.0 0.0 0.0 16.1 0.0
22/03/19 02:53 16.1 96 15.5 0.0 0.0 0 0.0 0.0 1017.0 0.0 0.0 16.1 0.0
22/03/19 02:52 16.1 97 15.6 0.0 0.0 0 0.0 0.0 1016.0 0.0 0.0 16.1 0.0
22/03/19 02:51 16.1 97 15.6 0.0 0.0 0 0.0 0.0 1016.0 0.0 0.0 16.1 0.0
22/03/19 02:50 16.1 97 15.6 0.0 0.0 0 0.0 0.0 1016.0 0.0 0.0 16.1 0.0
22/03/19 02:49 16.2 97 15.7 0.0 0.0 0 0.0 0.0 1016.0 0.0 0.0 16.2 0.0
22/03/19 02:48 16.2 97 15.7 0.0 0.0 0 0.0 0.0 1016.0 0.0 0.0 16.2 0.0
22/03/19 02:45 16.2 97 15.7 0.0 0.0 0 0.0 0.0 1016.0 0.0 0.0 16.2 0.0
22/03/19 02:44 16.2 97 15.7 0.0 0.0 0 0.0 0.0 1016.0 0.0 0.0 16.2 0.0
22/03/19 02:43 16.2 97 15.7 0.0 0.0 0 0.0 0.0 1016.0 0.0 0.0 16.2 0.0
22/03/19 02:42 16.2 97 15.7 0.0 0.0 0 0.0 0.0 1016.0 0.0 0.0 16.2 0.0
22/03/19 02:41 16.3 97 15.8 0.0 0.0 0 0.0 0.0 1016.0 0.0 0.0 16.3 0.0
22/03/19 02:40 16.3 97 15.8 0.0 0.0 0 0.0 0.0 1016.0 0.0 0.0 16.3 0.0
22/03/19 02:39 16.3 97 15.8 0.0 0.0 0 0.0 0.0 1016.0 0.0 0.0 16.3 0.0
22/03/19 02:38 16.3 97 15.8 0.0 0.0 0 0.0 0.0 1016.0 0.0 0.0 16.3 0.0
22/03/19 02:37 16.3 97 15.8 0.0 0.0 0 0.0 0.0 1017.0 0.0 0.0 16.3 0.0
22/03/19 02:36 16.3 97 15.8 0.0 0.0 0 0.0 0.0 1017.0 0.0 0.0 16.3 0.0
22/03/19 02:35 16.3 97 15.8 0.0 0.0 0 0.0 0.0 1017.0 0.0 0.0 16.3 0.0
22/03/19 02:34 16.2 97 15.7 0.0 0.0 0 0.0 0.0 1017.0 0.0 0.0 16.2 0.0
22/03/19 02:33 16.2 97 15.7 0.0 0.0 0 0.0 0.0 1017.0 0.0 0.0 16.2 0.0
22/03/19 02:30 16.3 97 15.8 0.0 0.0 0 0.0 0.0 1017.0 0.0 0.0 16.3 0.0
22/03/19 02:29 16.3 97 15.8 0.0 0.0 0 0.0 0.0 1017.0 0.0 0.0 16.3 0.0
22/03/19 02:28 16.3 97 15.8 0.0 0.0 0 0.0 0.0 1017.0 0.0 0.0 16.3 0.0
22/03/19 02:27 16.3 97 15.8 0.0 0.0 0 0.0 0.0 1017.0 0.0 0.0 16.3 0.0
22/03/19 02:26 16.3 97 15.8 0.0 0.0 0 0.0 0.0 1017.0 0.0 0.0 16.3 0.0
22/03/19 02:25 16.3 97 15.8 0.0 0.0 0 0.0 0.0 1017.0 0.0 0.0 16.3 0.0
22/03/19 02:24 16.3 97 15.8 0.0 0.0 0 0.0 0.0 1017.0 0.0 0.0 16.3 0.0
22/03/19 02:23 16.3 97 15.8 0.0 0.0 0 0.0 0.0 1017.0 0.0 0.0 16.3 0.0
22/03/19 02:22 16.3 97 15.8 0.0 0.0 0 0.0 0.0 1016.0 0.0 0.0 16.3 0.0
22/03/19 02:21 16.3 97 15.8 0.0 0.0 0 0.0 0.0 1016.0 0.0 0.0 16.3 0.0
22/03/19 02:20 16.3 97 15.8 0.0 0.0 0 0.0 0.0 1016.0 0.0 0.0 16.3 0.0
22/03/19 02:19 16.3 97 15.8 0.0 0.0 0 0.0 0.0 1016.0 0.0 0.0 16.3 0.0
22/03/19 02:18 16.3 97 15.8 0.0 0.0 0 0.0 0.0 1016.0 0.0 0.0 16.3 0.0
22/03/19 02:15 16.4 97 15.9 0.0 0.0 0 0.0 0.0 1016.0 0.0 0.0 16.4 0.0
22/03/19 02:14 16.4 97 15.9 0.0 0.0 0 0.0 0.0 1016.0 0.0 0.0 16.4 0.0
22/03/19 02:13 16.4 97 15.9 0.0 0.0 0 0.0 0.0 1016.0 0.0 0.0 16.4 0.0
22/03/19 02:12 16.4 97 15.9 0.0 0.0 0 0.0 0.0 1016.0 0.0 0.0 16.4 0.0
22/03/19 02:11 16.5 97 16.0 0.0 0.0 0 0.0 0.0 1016.0 0.0 0.0 16.5 0.0
22/03/19 02:10 16.5 97 16.0 0.0 0.0 0 0.0 0.0 1016.0 0.0 0.0 16.5 0.0
22/03/19 02:09 16.4 97 15.9 0.0 0.0 0 0.0 0.0 1016.0 0.0 0.0 16.4 0.0
22/03/19 02:08 16.5 97 16.0 0.0 0.0 0 0.0 0.0 1016.0 0.0 0.0 16.5 0.0
22/03/19 02:07 16.5 97 16.0 0.0 0.0 0 0.0 0.0 1017.0 0.0 0.0 16.5 0.0
22/03/19 02:06 16.5 97 16.0 0.0 0.0 0 0.0 0.0 1017.0 0.0 0.0 16.5 0.0
22/03/19 02:05 16.5 97 16.0 0.0 0.0 0 0.0 0.0 1017.0 0.0 0.0 16.5 0.0
22/03/19 02:04 16.5 97 16.0 0.0 0.0 0 0.0 0.0 1017.0 0.0 0.0 16.5 0.0
22/03/19 02:03 16.5 97 16.0 0.0 0.0 0 0.0 0.0 1017.0 0.0 0.0 16.5 0.0
22/03/19 02:00 16.5 97 16.0 0.0 0.0 0 0.0 0.0 1017.0 0.0 0.0 16.5 0.0
22/03/19 01:59 16.5 97 16.0 0.0 0.0 0 0.0 0.0 1017.0 0.0 0.0 16.5 0.0
22/03/19 01:58 16.5 97 16.0 0.0 0.0 0 0.0 0.0 1017.0 0.0 0.0 16.5 0.0
22/03/19 01:57 16.5 97 16.0 0.0 0.0 0 0.0 0.0 1017.0 0.0 0.0 16.5 0.0
22/03/19 01:56 16.5 97 16.0 0.0 0.0 0 0.0 0.0 1017.0 0.0 0.0 16.5 0.0
22/03/19 01:55 16.5 97 16.0 0.0 0.0 0 0.0 0.0 1017.0 0.0 0.0 16.5 0.0
22/03/19 01:54 16.5 97 16.0 0.0 0.0 0 0.0 0.0 1017.0 0.0 0.0 16.5 0.0
22/03/19 01:53 16.5 97 16.0 0.0 0.0 0 0.0 0.0 1017.0 0.0 0.0 16.5 0.0
22/03/19 01:52 16.5 97 16.0 0.0 0.0 0 0.0 0.0 1017.0 0.0 0.0 16.5 0.0
22/03/19 01:51 16.5 97 16.0 0.0 0.0 0 0.0 0.0 1017.0 0.0 0.0 16.5 0.0
22/03/19 01:50 16.5 97 16.0 0.0 0.0 0 0.0 0.0 1017.0 0.0 0.0 16.5 0.0
22/03/19 01:49 16.5 97 16.0 0.0 0.0 0 0.0 0.0 1017.0 0.0 0.0 16.5 0.0
22/03/19 01:48 16.5 97 16.0 0.0 0.0 0 0.0 0.0 1017.0 0.0 0.0 16.5 0.0
22/03/19 01:45 16.5 97 16.0 0.0 0.0 0 0.0 0.0 1017.0 0.0 0.0 16.5 0.0
22/03/19 01:44 16.6 97 16.1 0.0 0.0 0 0.0 0.0 1017.0 0.0 0.0 16.6 0.0
22/03/19 01:43 16.6 97 16.1 0.0 0.0 0 0.0 0.0 1017.0 0.0 0.0 16.6 0.0
22/03/19 01:42 16.6 97 16.1 0.0 0.0 0 0.0 0.0 1017.0 0.0 0.0 16.6 0.0
22/03/19 01:41 16.5 97 16.0 0.0 0.0 0 0.0 0.0 1017.0 0.0 0.0 16.5 0.0
22/03/19 01:40 16.6 97 16.1 0.0 0.0 0 0.0 0.0 1017.0 0.0 0.0 16.6 0.0
22/03/19 01:39 16.6 96 16.0 0.0 0.0 0 0.0 0.0 1017.0 0.0 0.0 16.6 0.0
22/03/19 01:38 16.6 96 16.0 0.0 0.0 0 0.0 0.0 1017.0 0.0 0.0 16.6 0.0
22/03/19 01:37 16.6 96 16.0 0.0 0.0 0 0.0 0.0 1017.0 0.0 0.0 16.6 0.0
22/03/19 01:36 16.6 96 16.0 0.0 0.0 0 0.0 0.0 1017.0 0.0 0.0 16.6 0.0
22/03/19 01:35 16.6 96 16.0 0.0 0.0 0 0.0 0.0 1017.0 0.0 0.0 16.6 0.0
22/03/19 01:34 16.6 96 16.0 0.0 0.0 0 0.0 0.0 1017.0 0.0 0.0 16.6 0.0
22/03/19 01:33 16.6 96 16.0 0.0 0.0 0 0.0 0.0 1017.0 0.0 0.0 16.6 0.0
22/03/19 01:30 16.6 96 16.0 0.0 0.0 0 0.0 0.0 1017.0 0.0 0.0 16.6 0.0
22/03/19 01:29 16.6 96 16.0 0.0 0.0 0 0.0 0.0 1017.0 0.0 0.0 16.6 0.0
22/03/19 01:28 16.6 96 16.0 0.0 0.0 0 0.0 0.0 1017.0 0.0 0.0 16.6 0.0
22/03/19 01:27 16.6 96 16.0 0.0 0.0 0 0.0 0.0 1017.0 0.0 0.0 16.6 0.0
22/03/19 01:26 16.7 96 16.1 0.0 0.0 0 0.0 0.0 1017.0 0.0 0.0 16.7 0.0
22/03/19 01:25 16.7 96 16.1 0.0 0.0 0 0.0 0.0 1017.0 0.0 0.0 16.7 0.0
22/03/19 01:24 16.7 96 16.1 0.0 0.0 0 0.0 0.0 1017.0 0.0 0.0 16.7 0.0
22/03/19 01:23 16.7 96 16.1 0.0 0.0 0 0.0 0.0 1017.0 0.0 0.0 16.7 0.0
22/03/19 01:22 16.7 96 16.1 0.0 0.0 0 0.0 0.0 1017.0 0.0 0.0 16.7 0.0
22/03/19 01:21 16.7 96 16.1 0.0 0.0 0 0.0 0.0 1017.0 0.0 0.0 16.7 0.0
22/03/19 01:20 16.7 96 16.1 0.0 0.0 0 0.0 0.0 1017.0 0.0 0.0 16.7 0.0
22/03/19 01:19 16.7 96 16.1 0.0 0.0 0 0.0 0.0 1017.0 0.0 0.0 16.7 0.0
22/03/19 01:18 16.8 96 16.2 0.0 0.0 0 0.0 0.0 1017.0 0.0 0.0 16.8 0.0
22/03/19 01:15 16.8 96 16.2 0.0 0.0 0 0.0 0.0 1017.0 0.0 0.0 16.8 0.0
22/03/19 01:14 16.8 96 16.2 0.0 0.0 0 0.0 0.0 1017.0 0.0 0.0 16.8 0.0
22/03/19 01:13 16.9 96 16.3 0.0 0.0 0 0.0 0.0 1017.0 0.0 0.0 16.9 0.0
22/03/19 01:12 16.9 96 16.3 0.0 0.0 0 0.0 0.0 1017.0 0.0 0.0 16.9 0.0
22/03/19 01:11 16.9 96 16.3 0.0 0.0 0 0.0 0.0 1017.0 0.0 0.0 16.9 0.0
22/03/19 01:10 16.9 96 16.3 0.0 0.0 0 0.0 0.0 1017.0 0.0 0.0 16.9 0.0
22/03/19 01:09 16.9 96 16.3 0.0 0.0 0 0.0 0.0 1017.0 0.0 0.0 16.9 0.0
22/03/19 01:08 16.9 96 16.3 0.0 0.0 0 0.0 0.0 1017.0 0.0 0.0 16.9 0.0
22/03/19 01:07 16.9 96 16.3 0.0 0.0 0 0.0 0.0 1018.0 0.0 0.0 16.9 0.0
22/03/19 01:06 16.9 96 16.3 0.0 0.0 0 0.0 0.0 1018.0 0.0 0.0 16.9 0.0
22/03/19 01:05 17.0 95 16.2 0.0 0.0 0 0.0 0.0 1018.0 0.0 0.0 17.0 0.0
22/03/19 01:04 17.0 95 16.2 0.0 0.0 0 0.0 0.0 1018.0 0.0 0.0 17.0 0.0
22/03/19 01:03 17.0 95 16.2 0.0 0.0 0 0.0 0.0 1018.0 0.0 0.0 17.0 0.0
22/03/19 01:00 17.0 95 16.2 0.0 0.0 0 0.0 0.0 1018.0 0.0 0.0 17.0 0.0
22/03/19 00:59 17.0 95 16.2 0.0 0.0 0 0.0 0.0 1018.0 0.0 0.0 17.0 0.0
22/03/19 00:58 17.1 95 16.3 0.0 0.0 0 0.0 0.0 1018.0 0.0 0.0 17.1 0.0
22/03/19 00:57 17.1 95 16.3 0.0 0.0 0 0.0 0.0 1018.0 0.0 0.0 17.1 0.0
22/03/19 00:56 17.1 95 16.3 0.0 0.0 0 0.0 0.0 1018.0 0.0 0.0 17.1 0.0
22/03/19 00:55 17.1 95 16.3 0.0 0.0 0 0.0 0.0 1018.0 0.0 0.0 17.1 0.0
22/03/19 00:54 17.1 95 16.3 0.0 0.0 0 0.0 0.0 1018.0 0.0 0.0 17.1 0.0
22/03/19 00:53 17.1 95 16.3 0.0 0.0 0 0.0 0.0 1018.0 0.0 0.0 17.1 0.0
22/03/19 00:52 17.1 95 16.3 0.0 0.0 0 0.0 0.0 1017.0 0.0 0.0 17.1 0.0
22/03/19 00:51 17.1 95 16.3 0.0 0.0 0 0.0 0.0 1017.0 0.0 0.0 17.1 0.0
22/03/19 00:50 17.2 95 16.4 0.0 0.0 0 0.0 0.0 1017.0 0.0 0.0 17.2 0.0
22/03/19 00:49 17.2 95 16.4 0.0 0.0 0 0.0 0.0 1017.0 0.0 0.0 17.2 0.0
22/03/19 00:48 17.2 95 16.4 0.0 0.0 0 0.0 0.0 1017.0 0.0 0.0 17.2 0.0
22/03/19 00:45 17.2 95 16.4 0.0 0.0 0 0.0 0.0 1017.0 0.0 0.0 17.2 0.0
22/03/19 00:44 17.2 95 16.4 0.0 0.0 0 0.0 0.0 1017.0 0.0 0.0 17.2 0.0
22/03/19 00:43 17.3 95 16.5 0.0 0.0 0 0.0 0.0 1017.0 0.0 0.0 17.3 0.0
22/03/19 00:42 17.3 95 16.5 0.0 0.0 0 0.0 0.0 1017.0 0.0 0.0 17.3 0.0
22/03/19 00:41 17.3 95 16.5 0.0 0.0 0 0.0 0.0 1017.0 0.0 0.0 17.3 0.0
22/03/19 00:40 17.3 95 16.5 0.0 0.0 0 0.0 0.0 1017.0 0.0 0.0 17.3 0.0
22/03/19 00:39 17.3 95 16.5 0.0 0.0 0 0.0 0.0 1017.0 0.0 0.0 17.3 0.0
22/03/19 00:38 17.3 95 16.5 0.0 0.0 0 0.0 0.0 1017.0 0.0 0.0 17.3 0.0
22/03/19 00:37 17.4 95 16.6 0.0 0.0 0 0.0 0.0 1018.0 0.0 0.0 17.4 0.0
22/03/19 00:36 17.3 95 16.5 0.0 0.0 0 0.0 0.0 1018.0 0.0 0.0 17.3 0.0
22/03/19 00:35 17.4 95 16.6 0.0 0.0 0 0.0 0.0 1018.0 0.0 0.0 17.4 0.0
22/03/19 00:34 17.4 95 16.6 0.0 0.0 0 0.0 0.0 1018.0 0.0 0.0 17.4 0.0
22/03/19 00:33 17.4 95 16.6 0.0 0.0 0 0.0 0.0 1018.0 0.0 0.0 17.4 0.0
22/03/19 00:30 17.4 95 16.6 0.0 0.0 0 0.0 0.0 1018.0 0.0 0.0 17.4 0.0
22/03/19 00:29 17.4 95 16.6 0.0 0.0 0 0.0 0.0 1018.0 0.0 0.0 17.4 0.0
22/03/19 00:28 17.4 94 16.4 0.0 0.0 0 0.0 0.0 1018.0 0.0 0.0 17.4 0.0
22/03/19 00:27 17.4 94 16.4 0.0 0.0 0 0.0 0.0 1018.0 0.0 0.0 17.4 0.0
22/03/19 00:26 17.4 94 16.4 0.0 0.0 0 0.0 0.0 1018.0 0.0 0.0 17.4 0.0
22/03/19 00:25 17.4 94 16.4 0.0 0.0 0 0.0 0.0 1018.0 0.0 0.0 17.4 0.0
22/03/19 00:24 17.4 94 16.4 0.0 0.0 0 0.0 0.0 1018.0 0.0 0.0 17.4 0.0
22/03/19 00:23 17.4 94 16.4 0.0 0.0 0 0.0 0.0 1018.0 0.0 0.0 17.4 0.0
22/03/19 00:22 17.4 94 16.4 0.0 0.0 0 0.0 0.0 1018.0 0.0 0.0 17.4 0.0
22/03/19 00:21 17.4 94 16.4 0.0 0.0 0 0.0 0.0 1018.0 0.0 0.0 17.4 0.0
22/03/19 00:20 17.4 94 16.4 0.0 0.0 0 0.0 0.0 1018.0 0.0 0.0 17.4 0.0
22/03/19 00:19 17.4 94 16.4 0.0 0.0 0 0.0 0.0 1018.0 0.0 0.0 17.4 0.0
22/03/19 00:18 17.4 94 16.4 0.0 0.0 0 0.0 0.0 1018.0 0.0 0.0 17.4 0.0
22/03/19 00:15 17.5 94 16.5 0.0 0.0 0 0.0 0.0 1018.0 0.0 0.0 17.5 0.0
22/03/19 00:14 17.4 94 16.4 0.0 0.0 0 0.0 0.0 1018.0 0.0 0.0 17.4 0.0
22/03/19 00:13 17.5 94 16.5 0.0 0.0 0 0.0 0.0 1018.0 0.0 0.0 17.5 0.0
22/03/19 00:12 17.5 94 16.5 0.0 0.0 0 0.0 0.0 1018.0 0.0 0.0 17.5 0.0
22/03/19 00:11 17.5 94 16.5 0.0 0.0 0 0.0 0.0 1018.0 0.0 0.0 17.5 0.0
22/03/19 00:10 17.5 94 16.5 0.0 0.0 0 0.0 0.0 1018.0 0.0 0.0 17.5 0.0
22/03/19 00:09 17.5 94 16.5 0.0 0.0 0 0.0 0.0 1018.0 0.0 0.0 17.5 0.0
22/03/19 00:08 17.5 94 16.5 0.0 0.0 0 0.0 0.0 1018.0 0.0 0.0 17.5 0.0
22/03/19 00:07 17.5 94 16.5 0.0 0.0 0 0.0 0.0 1018.0 0.0 0.0 17.5 0.0
22/03/19 00:06 17.6 94 16.6 0.0 0.0 0 0.0 0.0 1018.0 0.0 0.0 17.6 0.0
22/03/19 00:05 17.6 94 16.6 0.0 0.0 0 0.0 0.0 1018.0 0.0 0.0 17.6 0.0
22/03/19 00:04 17.6 94 16.6 0.0 0.0 0 0.0 0.0 1018.0 0.0 0.0 17.6 0.0
22/03/19 00:03 17.6 94 16.6 0.0 0.0 0 0.0 0.0 1018.0 0.0 0.0 17.6 0.0
22/03/19 00:00 17.6 93 16.5 0.0 0.0 0 0.0 0.0 1018.0 0.0 0.0 17.6 0.0
  Back to Top


This site is NOT a professional weather site.
Never base important decisions on this or any weather information obtained from the Internet.
Website Supported by Cumulus. Contact me Admin